createdAt,value
2019-05-21T00:01:20.909Z,15.76
2019-05-21T00:03:51.133Z,15.76
2019-05-21T00:06:21.288Z,15.77
2019-05-21T00:08:51.493Z,15.77
2019-05-21T00:11:21.632Z,15.77
2019-05-21T00:13:51.798Z,15.69
2019-05-21T00:16:22.052Z,15.59
2019-05-21T00:18:52.174Z,15.49
2019-05-21T00:21:22.301Z,15.50
2019-05-21T00:23:52.434Z,15.57
2019-05-21T00:26:23.653Z,15.61
2019-05-21T00:29:29.789Z,15.65
2019-05-21T00:32:36.030Z,15.62
2019-05-21T00:35:48.633Z,15.59
2019-05-21T00:38:54.709Z,15.53
2019-05-21T00:42:06.305Z,15.44
2019-05-21T00:44:40.295Z,15.40
2019-05-21T00:47:11.962Z,15.40
2019-05-21T00:49:42.422Z,15.47
2019-05-21T00:52:12.563Z,15.48
2019-05-21T00:54:42.682Z,15.47
2019-05-21T00:57:12.810Z,15.40
2019-05-21T00:59:42.942Z,15.15
2019-05-21T01:02:13.144Z,15.11
2019-05-21T01:04:43.305Z,15.14
2019-05-21T01:07:13.455Z,15.28
2019-05-21T01:09:43.586Z,15.29
2019-05-21T01:12:15.790Z,15.19
2019-05-21T01:14:45.943Z,15.26
2019-05-21T01:17:16.114Z,15.18
2019-05-21T01:19:46.296Z,15.09
2019-05-21T01:22:16.433Z,15.15
2019-05-21T01:24:46.609Z,15.23
2019-05-21T01:27:16.753Z,15.26
2019-05-21T01:29:46.883Z,15.26
2019-05-21T01:32:17.016Z,15.27
2019-05-21T01:34:47.178Z,15.26
2019-05-21T01:37:17.338Z,15.26
2019-05-21T01:39:47.492Z,15.23
2019-05-21T01:42:17.654Z,15.19
2019-05-21T01:44:47.799Z,15.21
2019-05-21T01:47:17.927Z,15.19
2019-05-21T01:49:48.053Z,15.12
2019-05-21T01:52:18.186Z,15.16
2019-05-21T01:54:48.342Z,15.15
2019-05-21T01:57:18.497Z,15.16
2019-05-21T01:59:48.644Z,15.14
2019-05-21T02:02:18.774Z,15.17
2019-05-21T02:04:48.945Z,15.18
2019-05-21T02:07:19.106Z,15.21
2019-05-21T02:09:58.263Z,15.21
2019-05-21T02:12:28.616Z,15.19
2019-05-21T02:14:58.869Z,15.12
2019-05-21T02:17:29.034Z,15.15
2019-05-21T02:19:59.162Z,15.19
2019-05-21T02:22:29.329Z,15.25
2019-05-21T02:24:59.445Z,15.11
2019-05-21T02:27:29.612Z,15.13
2019-05-21T02:30:00.819Z,15.02
2019-05-21T02:32:31.043Z,15.01
2019-05-21T02:35:01.188Z,15.12
2019-05-21T02:37:31.369Z,15.02
2019-05-21T02:40:01.522Z,15.01
2019-05-21T02:42:31.698Z,14.94
2019-05-21T02:45:01.897Z,14.93
2019-05-21T02:47:32.055Z,15.04
2019-05-21T02:50:03.093Z,15.17
2019-05-21T02:52:33.234Z,15.17
2019-05-21T02:55:03.365Z,15.15
2019-05-21T02:57:41.297Z,15.25
2019-05-21T03:00:40.966Z,15.29
2019-05-21T03:03:11.991Z,15.27
2019-05-21T03:05:42.134Z,15.25
2019-05-21T03:08:12.279Z,15.22
2019-05-21T03:10:42.416Z,15.18
2019-05-21T03:13:12.551Z,15.14
2019-05-21T03:15:42.694Z,15.14
2019-05-21T03:18:12.915Z,15.15
2019-05-21T03:20:43.099Z,14.27
2019-05-21T03:23:13.265Z,15.31
2019-05-21T03:25:43.406Z,15.31
2019-05-21T03:28:13.611Z,15.34
2019-05-21T03:30:43.815Z,15.36
2019-05-21T03:33:14.032Z,15.39
2019-05-21T03:35:44.187Z,15.42
2019-05-21T03:38:14.313Z,15.54
2019-05-21T03:40:44.452Z,15.68
2019-05-21T03:43:14.606Z,15.82
2019-05-21T03:45:45.610Z,15.95
2019-05-21T03:48:15.744Z,16.11
2019-05-21T03:50:45.927Z,16.24
2019-05-21T03:53:16.072Z,16.28
2019-05-21T03:55:46.398Z,16.23
2019-05-21T03:58:16.582Z,16.36
2019-05-21T04:00:46.727Z,16.30
2019-05-21T04:03:17.094Z,16.39
2019-05-21T04:05:47.221Z,16.32
2019-05-21T04:08:17.511Z,16.39
2019-05-21T04:10:47.651Z,16.47
2019-05-21T04:13:17.804Z,16.51
2019-05-21T04:16:03.081Z,16.56
2019-05-21T04:18:38.368Z,16.63
2019-05-21T04:21:08.549Z,16.62
2019-05-21T04:23:39.661Z,16.60
2019-05-21T04:26:09.824Z,16.65
2019-05-21T04:28:40.059Z,16.74
2019-05-21T04:31:10.198Z,16.81
2019-05-21T04:33:40.366Z,16.76
2019-05-21T04:36:10.473Z,16.69
2019-05-21T04:38:40.606Z,16.69
2019-05-21T04:41:10.795Z,16.60
2019-05-21T04:43:40.924Z,16.64
2019-05-21T04:46:11.101Z,16.62
2019-05-21T04:48:41.219Z,16.75
2019-05-21T04:51:13.942Z,16.78
2019-05-21T04:53:44.423Z,16.77
2019-05-21T04:56:14.611Z,16.86
2019-05-21T04:58:44.879Z,16.98
2019-05-21T05:01:15.875Z,17.02
2019-05-21T05:03:46.176Z,17.05
2019-05-21T05:06:16.438Z,17.08
2019-05-21T05:08:46.568Z,17.13
2019-05-21T05:11:16.772Z,17.16
2019-05-21T05:13:47.044Z,17.12
2019-05-21T05:16:17.131Z,17.26
2019-05-21T05:18:47.285Z,17.34
2019-05-21T05:21:19.710Z,17.51
2019-05-21T05:23:49.962Z,17.72
2019-05-21T05:26:20.927Z,17.96
2019-05-21T05:28:51.089Z,18.06
2019-05-21T05:31:21.232Z,18.07
2019-05-21T05:33:51.532Z,18.24
2019-05-21T05:36:21.683Z,18.29
2019-05-21T05:38:51.821Z,18.38
2019-05-21T05:41:21.959Z,18.36
2019-05-21T05:43:52.180Z,18.30
2019-05-21T05:46:22.302Z,18.15
2019-05-21T05:49:04.021Z,18.04
2019-05-21T05:51:34.228Z,17.95
2019-05-21T05:54:07.562Z,17.92
2019-05-21T05:56:36.208Z,17.90
2019-05-21T05:59:06.351Z,18.07
2019-05-21T06:01:36.482Z,18.22
2019-05-21T06:04:07.325Z,18.06
2019-05-21T06:06:37.490Z,18.09
2019-05-21T06:09:07.714Z,18.24
2019-05-21T06:11:38.000Z,18.25
2019-05-21T06:14:08.178Z,18.53
2019-05-21T06:16:38.303Z,18.67
2019-05-21T06:19:08.439Z,18.86
2019-05-21T06:21:38.581Z,19.04
2019-05-21T06:24:08.717Z,19.26
2019-05-21T06:26:38.862Z,19.49
2019-05-21T06:29:09.023Z,19.81
2019-05-21T06:31:39.152Z,20.08
2019-05-21T06:34:09.286Z,20.30
2019-05-21T06:36:39.485Z,20.43
2019-05-21T06:39:09.609Z,20.63
2019-05-21T06:41:39.749Z,20.90
2019-05-21T06:44:09.899Z,21.19
2019-05-21T06:46:40.049Z,21.28
2019-05-21T06:49:10.175Z,21.47
2019-05-21T06:51:40.306Z,21.76
2019-05-21T06:54:11.235Z,22.09
2019-05-21T06:56:41.370Z,22.32
2019-05-21T06:59:11.612Z,22.63
2019-05-21T07:01:41.789Z,22.83
2019-05-21T07:04:11.944Z,22.98
2019-05-21T07:06:44.739Z,23.08
2019-05-21T07:09:13.970Z,23.39
2019-05-21T07:11:44.145Z,23.57
2019-05-21T07:14:15.395Z,23.89
2019-05-21T07:16:45.555Z,24.02
2019-05-21T07:19:15.734Z,24.15
2019-05-21T07:21:45.862Z,24.61
2019-05-21T07:24:16.011Z,25.05
2019-05-21T07:26:46.182Z,25.18
2019-05-21T07:29:16.352Z,25.32
2019-05-21T07:31:46.459Z,25.25
2019-05-21T07:34:16.614Z,25.08
2019-05-21T07:36:46.757Z,25.16
2019-05-21T07:39:16.901Z,25.04
2019-05-21T07:41:47.044Z,24.88
2019-05-21T07:44:18.274Z,24.91
2019-05-21T07:46:48.616Z,24.82
2019-05-21T07:49:18.756Z,24.63
2019-05-21T07:51:48.940Z,24.51
2019-05-21T07:54:19.109Z,24.64
2019-05-21T07:56:49.267Z,24.87
2019-05-21T07:59:19.400Z,25.46
2019-05-21T08:01:49.551Z,25.41
2019-05-21T08:04:19.688Z,25.31
2019-05-21T08:06:49.822Z,25.31
2019-05-21T08:09:19.979Z,25.20
2019-05-21T08:11:50.310Z,25.33
2019-05-21T08:14:20.632Z,25.65
2019-05-21T08:16:50.785Z,25.91
2019-05-21T08:19:21.885Z,26.31
2019-05-21T08:21:53.313Z,26.27
2019-05-21T08:24:23.462Z,26.20
2019-05-21T08:26:53.624Z,26.50
2019-05-21T08:29:23.795Z,26.82
2019-05-21T08:31:53.975Z,27.26
2019-05-21T08:34:24.098Z,27.26
2019-05-21T08:36:54.229Z,27.52
2019-05-21T08:39:28.771Z,27.75
2019-05-21T08:41:56.229Z,27.66
2019-05-21T08:44:26.371Z,27.76
2019-05-21T08:46:56.525Z,28.13
2019-05-21T08:49:26.703Z,28.34
2019-05-21T08:51:56.851Z,28.17
2019-05-21T08:54:44.697Z,27.90
2019-05-21T08:57:14.834Z,27.95
2019-05-21T08:59:44.986Z,27.68
2019-05-21T09:02:15.229Z,27.50
2019-05-21T09:04:46.801Z,27.52
2019-05-21T09:07:16.997Z,27.31
2019-05-21T09:09:50.754Z,27.22
2019-05-21T09:12:20.037Z,27.06
2019-05-21T09:14:50.180Z,26.77
2019-05-21T09:17:20.345Z,26.60
2019-05-21T09:19:50.458Z,26.72
2019-05-21T09:22:20.625Z,26.13
2019-05-21T09:24:50.822Z,26.13
2019-05-21T09:27:22.093Z,25.66
2019-05-21T09:29:52.579Z,25.12
2019-05-21T09:32:22.718Z,24.98
2019-05-21T09:34:52.898Z,24.74
2019-05-21T09:37:23.026Z,24.51
2019-05-21T09:39:53.168Z,24.13
2019-05-21T09:42:23.307Z,23.77
2019-05-21T09:44:53.534Z,23.30
2019-05-21T09:47:23.679Z,22.95
2019-05-21T09:49:54.401Z,22.69
2019-05-21T09:52:24.649Z,22.53
2019-05-21T09:54:54.809Z,22.24
2019-05-21T09:57:39.563Z,22.21
2019-05-21T10:00:16.885Z,22.04
2019-05-21T10:02:47.010Z,21.91
2019-05-21T10:05:17.312Z,21.75
2019-05-21T10:07:47.443Z,21.85
2019-05-21T10:10:17.849Z,22.05
2019-05-21T10:12:48.007Z,22.15
2019-05-21T10:15:19.229Z,22.12
2019-05-21T10:17:50.324Z,22.21
2019-05-21T10:20:20.661Z,22.20
2019-05-21T10:22:50.794Z,22.22
2019-05-21T10:25:21.060Z,22.17
2019-05-21T10:27:51.270Z,22.37
2019-05-21T10:30:21.426Z,22.53
2019-05-21T10:32:51.589Z,22.56
2019-05-21T10:35:21.965Z,22.65
2019-05-21T10:37:55.322Z,22.77
2019-05-21T10:40:24.138Z,22.84
2019-05-21T10:42:54.236Z,22.76
2019-05-21T10:45:24.370Z,22.61
2019-05-21T10:47:54.697Z,22.82
2019-05-21T10:50:24.989Z,22.75
2019-05-21T10:52:55.336Z,22.77
2019-05-21T10:55:25.464Z,22.59
2019-05-21T10:57:55.591Z,22.35
2019-05-21T11:00:26.907Z,22.13
2019-05-21T11:03:05.040Z,22.11
2019-05-21T11:05:40.344Z,21.94
2019-05-21T11:08:23.705Z,21.60
2019-05-21T11:10:43.241Z,21.19
2019-05-21T11:13:13.464Z,20.82
2019-05-21T11:15:43.658Z,20.60
2019-05-21T11:18:13.787Z,20.25
2019-05-21T11:20:43.933Z,19.73
2019-05-21T11:23:14.089Z,19.61
2019-05-21T11:25:44.205Z,19.46
2019-05-21T11:28:14.331Z,19.53
2019-05-21T11:30:44.479Z,20.02
2019-05-21T11:33:14.619Z,20.26
2019-05-21T11:35:44.765Z,20.65
2019-05-21T11:38:14.899Z,21.04
2019-05-21T11:40:50.560Z,21.60
2019-05-21T11:43:16.935Z,22.01
2019-05-21T11:45:47.064Z,22.08
2019-05-21T11:48:17.186Z,21.98
2019-05-21T11:50:47.350Z,21.72
2019-05-21T11:53:17.513Z,21.66
2019-05-21T11:55:47.731Z,21.79
2019-05-21T11:58:17.852Z,21.90
2019-05-21T12:00:47.979Z,21.96
2019-05-21T12:03:18.094Z,22.11
2019-05-21T12:05:49.085Z,22.10
2019-05-21T12:08:19.271Z,22.27
2019-05-21T12:10:49.519Z,22.47
2019-05-21T12:13:20.921Z,22.30
2019-05-21T12:15:51.148Z,22.28
2019-05-21T12:18:21.285Z,22.48
2019-05-21T12:20:51.466Z,22.53
2019-05-21T12:23:21.912Z,22.65
2019-05-21T12:25:52.099Z,22.35
2019-05-21T12:28:22.310Z,22.44
2019-05-21T12:30:52.440Z,22.25
2019-05-21T12:33:22.581Z,22.14
2019-05-21T12:35:52.711Z,21.91
2019-05-21T12:38:22.859Z,22.01
2019-05-21T12:40:52.984Z,22.15
2019-05-21T12:43:23.118Z,22.12
2019-05-21T12:45:53.258Z,22.02
2019-05-21T12:48:23.391Z,21.91
2019-05-21T12:50:53.544Z,22.04
2019-05-21T12:53:24.134Z,22.29
2019-05-21T12:55:54.328Z,22.33
2019-05-21T12:58:24.479Z,22.59
2019-05-21T13:00:54.618Z,22.80
2019-05-21T13:03:24.761Z,22.82
2019-05-21T13:05:54.886Z,22.51
2019-05-21T13:08:25.029Z,22.37
2019-05-21T13:10:55.243Z,22.33
2019-05-21T13:13:25.369Z,22.09
2019-05-21T13:15:55.506Z,22.23
2019-05-21T13:18:25.631Z,22.00
2019-05-21T13:20:55.761Z,21.97
2019-05-21T13:23:26.969Z,21.93
2019-05-21T13:25:57.258Z,21.90
2019-05-21T13:28:27.383Z,21.99
2019-05-21T13:30:57.595Z,22.14
2019-05-21T13:33:27.723Z,22.01
2019-05-21T13:35:57.963Z,21.94
2019-05-21T13:38:28.262Z,21.80
2019-05-21T13:40:58.683Z,21.86
2019-05-21T13:43:28.830Z,21.83
2019-05-21T13:45:59.024Z,22.04
2019-05-21T13:48:29.129Z,21.91
2019-05-21T13:50:59.272Z,21.90
2019-05-21T13:53:29.497Z,21.95
2019-05-21T13:55:59.653Z,21.96
2019-05-21T13:58:29.795Z,21.93
2019-05-21T14:01:00.306Z,21.91
2019-05-21T14:03:30.469Z,21.85
2019-05-21T14:06:01.920Z,22.04
2019-05-21T14:08:32.074Z,22.00
2019-05-21T14:11:03.098Z,21.95
2019-05-21T14:13:33.292Z,21.96
2019-05-21T14:16:03.476Z,21.81
2019-05-21T14:18:33.620Z,21.84
2019-05-21T14:21:03.777Z,21.81
2019-05-21T14:23:35.113Z,21.76
2019-05-21T14:26:05.458Z,21.84
2019-05-21T14:28:35.650Z,21.89
2019-05-21T14:31:05.849Z,21.86
2019-05-21T14:33:36.002Z,21.72
2019-05-21T14:36:06.212Z,21.76
2019-05-21T14:38:36.425Z,21.75
2019-05-21T14:41:06.929Z,21.82
2019-05-21T14:43:38.201Z,21.85
2019-05-21T14:46:08.352Z,21.87
2019-05-21T14:48:38.485Z,21.77
2019-05-21T14:51:13.142Z,21.79
2019-05-21T14:53:40.690Z,21.56
2019-05-21T14:56:10.908Z,21.61
2019-05-21T14:58:41.060Z,21.72
2019-05-21T15:01:11.167Z,21.59
2019-05-21T15:03:41.316Z,21.34
2019-05-21T15:06:12.284Z,21.41
2019-05-21T15:08:42.405Z,21.28
2019-05-21T15:11:12.529Z,21.33
2019-05-21T15:13:42.687Z,21.31
2019-05-21T15:16:12.839Z,21.30
2019-05-21T15:18:43.015Z,21.27
2019-05-21T15:21:21.514Z,21.32
2019-05-21T15:23:52.682Z,21.34
2019-05-21T15:26:23.893Z,21.33
2019-05-21T15:28:55.109Z,21.19
2019-05-21T15:31:25.387Z,21.02
2019-05-21T15:33:55.712Z,20.91
2019-05-21T15:36:26.063Z,20.92
2019-05-21T15:38:56.226Z,20.84
2019-05-21T15:41:26.429Z,20.68
2019-05-21T15:43:56.573Z,20.54
2019-05-21T15:46:26.784Z,20.20
2019-05-21T15:48:56.916Z,20.20
2019-05-21T15:51:27.046Z,20.03
2019-05-21T15:53:58.425Z,20.15
2019-05-21T15:56:28.501Z,19.98
2019-05-21T15:58:58.633Z,19.98
2019-05-21T16:01:28.765Z,19.85
2019-05-21T16:03:58.891Z,19.86
2019-05-21T16:06:30.592Z,19.84
2019-05-21T16:09:00.809Z,19.85
2019-05-21T16:11:31.526Z,19.92
2019-05-21T16:14:01.713Z,19.82
2019-05-21T16:16:31.856Z,19.81
2019-05-21T16:19:02.111Z,19.75
2019-05-21T16:21:32.212Z,19.75
2019-05-21T16:24:02.340Z,19.79
2019-05-21T16:26:32.528Z,19.80
2019-05-21T16:29:02.665Z,19.51
2019-05-21T16:31:32.801Z,19.35
2019-05-21T16:34:02.930Z,19.11
2019-05-21T16:36:33.177Z,19.24
2019-05-21T16:39:05.003Z,19.07
2019-05-21T16:41:44.226Z,18.99
2019-05-21T16:44:07.035Z,18.99
2019-05-21T16:46:37.183Z,18.97
2019-05-21T16:49:07.327Z,18.95
2019-05-21T16:51:38.535Z,18.97
2019-05-21T16:54:08.711Z,18.97
2019-05-21T16:56:38.881Z,18.89
2019-05-21T16:59:08.953Z,18.85
2019-05-21T17:01:39.108Z,18.83
2019-05-21T17:04:09.224Z,18.83
2019-05-21T17:06:39.409Z,18.81
2019-05-21T17:09:12.769Z,18.82
2019-05-21T17:11:42.928Z,18.97
2019-05-21T17:14:13.093Z,19.00
2019-05-21T17:16:43.198Z,18.97
2019-05-21T17:19:13.529Z,18.89
2019-05-21T17:21:44.750Z,18.96
2019-05-21T17:24:14.873Z,18.81
2019-05-21T17:26:45.016Z,18.84
2019-05-21T17:29:16.200Z,18.90
2019-05-21T17:31:46.356Z,18.78
2019-05-21T17:34:16.536Z,18.91
2019-05-21T17:36:46.880Z,18.97
2019-05-21T17:39:17.384Z,18.98
2019-05-21T17:41:47.551Z,18.86
2019-05-21T17:44:17.673Z,18.52
2019-05-21T17:46:47.934Z,18.65
2019-05-21T17:49:19.367Z,18.61
2019-05-21T17:51:50.469Z,18.43
2019-05-21T17:54:20.830Z,18.57
2019-05-21T17:56:50.995Z,18.56
2019-05-21T17:59:22.455Z,18.58
2019-05-21T18:01:53.349Z,18.55
2019-05-21T18:04:23.733Z,18.56
2019-05-21T18:06:53.951Z,18.60
2019-05-21T18:09:24.374Z,18.40
2019-05-21T18:11:54.549Z,18.29
2019-05-21T18:14:25.586Z,18.28
2019-05-21T18:16:56.113Z,18.27
2019-05-21T18:19:26.517Z,18.16
2019-05-21T18:21:57.095Z,18.11
2019-05-21T18:24:27.620Z,18.10
2019-05-21T18:26:57.992Z,18.27
2019-05-21T18:29:28.117Z,18.33
2019-05-21T18:31:58.377Z,18.38
2019-05-21T18:34:28.521Z,18.37
2019-05-21T18:36:58.731Z,18.39
2019-05-21T18:39:29.182Z,18.40
2019-05-21T18:41:59.385Z,18.41
2019-05-21T18:44:29.522Z,18.42
2019-05-21T18:46:59.676Z,18.41
2019-05-21T18:49:29.875Z,18.41
2019-05-21T18:52:00.219Z,18.39
2019-05-21T18:54:30.482Z,18.37
2019-05-21T18:57:00.718Z,18.36
2019-05-21T18:59:30.992Z,18.37
2019-05-21T19:02:01.308Z,18.35
2019-05-21T19:04:31.476Z,18.34
2019-05-21T19:07:01.912Z,18.28
2019-05-21T19:09:32.166Z,18.24
2019-05-21T19:12:02.954Z,18.23
2019-05-21T19:14:33.568Z,18.21
2019-05-21T19:17:03.814Z,18.20
2019-05-21T19:19:33.950Z,18.18
2019-05-21T19:22:04.288Z,18.12
2019-05-21T19:24:34.452Z,18.05
2019-05-21T19:27:04.755Z,17.95
2019-05-21T19:29:35.009Z,17.83
2019-05-21T19:32:06.467Z,17.78
2019-05-21T19:34:36.619Z,17.71
2019-05-21T19:37:06.849Z,17.68
2019-05-21T19:39:37.348Z,17.66
2019-05-21T19:42:07.509Z,17.60
2019-05-21T19:44:37.656Z,17.55
2019-05-21T19:47:08.903Z,17.54
2019-05-21T19:49:39.057Z,17.49
2019-05-21T19:52:10.777Z,17.43
2019-05-21T19:54:40.943Z,17.34
2019-05-21T19:57:11.277Z,17.25
2019-05-21T19:59:41.557Z,17.16
2019-05-21T20:02:11.966Z,17.14
2019-05-21T20:04:42.902Z,17.11
2019-05-21T20:07:15.212Z,17.10
2019-05-21T20:09:49.125Z,17.07
2019-05-21T20:12:19.371Z,17.03
2019-05-21T20:14:49.674Z,17.00
2019-05-21T20:17:20.570Z,16.95
2019-05-21T20:19:52.577Z,16.91
2019-05-21T20:22:26.239Z,16.88
2019-05-21T20:24:55.611Z,16.84
2019-05-21T20:27:26.065Z,16.79
2019-05-21T20:30:11.540Z,16.74
2019-05-21T20:32:31.524Z,16.67
2019-05-21T20:35:01.819Z,16.60
2019-05-21T20:37:32.153Z,16.51
2019-05-21T20:40:02.305Z,16.41
2019-05-21T20:42:32.727Z,16.36
2019-05-21T20:45:03.041Z,16.30
2019-05-21T20:47:34.580Z,16.28
2019-05-21T20:50:05.746Z,16.25
2019-05-21T20:52:36.416Z,16.23
2019-05-21T20:55:08.230Z,16.21
2019-05-21T20:57:38.949Z,16.19
2019-05-21T21:00:11.009Z,16.15
2019-05-21T21:02:44.404Z,16.08
2019-05-21T21:05:15.363Z,16.02
2019-05-21T21:07:45.827Z,15.95
2019-05-21T21:10:16.233Z,15.88
2019-05-21T21:12:46.931Z,15.80
2019-05-21T21:15:17.274Z,15.75
2019-05-21T21:17:47.436Z,15.73
2019-05-21T21:20:17.680Z,15.68
2019-05-21T21:22:47.829Z,15.66
2019-05-21T21:25:24.266Z,15.63
2019-05-21T21:27:55.600Z,15.59
2019-05-21T21:30:25.916Z,15.54
2019-05-21T21:32:56.943Z,15.48
2019-05-21T21:35:27.145Z,15.46
2019-05-21T21:37:57.874Z,15.47
2019-05-21T21:40:28.309Z,15.44
2019-05-21T21:42:58.844Z,15.41
2019-05-21T21:45:29.055Z,15.39
2019-05-21T21:47:59.209Z,15.37
2019-05-21T21:50:29.640Z,15.33
2019-05-21T21:52:59.775Z,15.27
2019-05-21T21:55:31.974Z,15.22
2019-05-21T21:58:02.076Z,15.19
2019-05-21T22:01:27.959Z,15.16
2019-05-21T22:04:02.112Z,15.09
2019-05-21T22:06:35.497Z,15.02
2019-05-21T22:09:10.146Z,14.95
2019-05-21T22:11:40.828Z,14.83
2019-05-21T22:14:10.993Z,14.80
2019-05-21T22:16:41.245Z,14.79
2019-05-21T22:19:11.847Z,14.78
2019-05-21T22:21:43.006Z,14.73
2019-05-21T22:24:13.667Z,14.69
2019-05-21T22:26:43.809Z,14.65
2019-05-21T22:29:13.948Z,14.59
2019-05-21T22:31:44.665Z,14.59
2019-05-21T22:34:15.107Z,14.60
2019-05-21T22:36:45.253Z,14.58
2019-05-21T22:39:20.122Z,14.56
2019-05-21T22:41:50.245Z,14.57
2019-05-21T22:44:21.400Z,14.54
2019-05-21T22:46:52.441Z,14.52
2019-05-21T22:49:22.654Z,14.46
2019-05-21T22:51:54.023Z,14.43
2019-05-21T22:54:24.265Z,14.40
2019-05-21T22:56:54.404Z,14.33
2019-05-21T22:59:24.540Z,14.25
2019-05-21T23:01:56.702Z,14.19
2019-05-21T23:04:26.869Z,14.10
2019-05-21T23:06:58.763Z,14.12
2019-05-21T23:09:28.902Z,14.11
2019-05-21T23:11:59.043Z,14.11
2019-05-21T23:14:29.569Z,14.10
2019-05-21T23:17:01.758Z,14.10
2019-05-21T23:19:45.891Z,14.09
2019-05-21T23:22:18.517Z,14.06
2019-05-21T23:24:49.801Z,14.02
2019-05-21T23:27:20.705Z,13.98
2019-05-21T23:29:51.113Z,13.96
2019-05-21T23:32:21.621Z,13.94
2019-05-21T23:34:53.583Z,13.92
2019-05-21T23:37:25.371Z,13.89
2019-05-21T23:39:55.620Z,13.88
2019-05-21T23:42:30.203Z,13.87
2019-05-21T23:44:58.002Z,13.87
2019-05-21T23:47:28.137Z,13.86
2019-05-21T23:49:58.693Z,13.84
2019-05-21T23:52:29.428Z,13.84
2019-05-21T23:55:00.168Z,13.81
2019-05-21T23:57:33.352Z,13.72
